createdAt,value
2018-12-27T00:05:14.768Z,101746.33
2018-12-27T00:08:02.482Z,101746.09
2018-12-27T00:10:50.284Z,101739.86
2018-12-27T00:13:37.991Z,101737.44
2018-12-27T00:16:25.738Z,101740.12
2018-12-27T00:21:28.344Z,101735.53
2018-12-27T00:24:16.029Z,101733.85
2018-12-27T00:27:03.704Z,101735.22
2018-12-27T00:32:06.396Z,101729.48
2018-12-27T00:34:54.239Z,101730.50
2018-12-27T00:37:42.211Z,101733.06
2018-12-27T00:40:31.817Z,101723.28
2018-12-27T00:43:19.579Z,101727.03
2018-12-27T00:48:22.747Z,101727.42
2018-12-27T00:50:51.437Z,101725.71
2018-12-27T00:53:20.061Z,101721.93
2018-12-27T00:55:48.684Z,101725.27
2018-12-27T00:58:17.357Z,101718.80
2018-12-27T01:00:45.974Z,101717.49
2018-12-27T01:03:33.815Z,101717.17
2018-12-27T01:06:02.508Z,101714.86
2018-12-27T01:08:31.172Z,101714.39
2018-12-27T01:11:19.057Z,101715.10
2018-12-27T01:13:47.776Z,101712.09
2018-12-27T01:16:16.416Z,101715.69
2018-12-27T01:18:45.035Z,101719.08
2018-12-27T01:21:13.692Z,101714.02
2018-12-27T01:23:42.312Z,101717.16
2018-12-27T01:26:10.975Z,101718.14
2018-12-27T01:28:39.591Z,101724.86
2018-12-27T01:31:08.218Z,101716.94
2018-12-27T01:33:56.062Z,101718.55
2018-12-27T01:36:24.685Z,101719.50
2018-12-27T01:41:47.048Z,101726.02
2018-12-27T01:52:17.821Z,101719.39
2018-12-27T01:57:21.051Z,101715.77
2018-12-27T01:59:49.737Z,101718.14
2018-12-27T02:02:18.334Z,101723.71
2018-12-27T02:08:00.049Z,101723.72
2018-12-27T02:13:03.214Z,101730.70
2018-12-27T02:18:06.065Z,101718.73
2018-12-27T02:20:34.700Z,101718.33
2018-12-27T02:23:22.462Z,101716.31
2018-12-27T02:25:51.079Z,101714.64
2018-12-27T02:28:38.921Z,101709.20
2018-12-27T02:31:07.538Z,101695.45
2018-12-27T02:33:36.194Z,101693.48
2018-12-27T02:38:52.454Z,101692.95
2018-12-27T02:41:40.335Z,101687.80
2018-12-27T02:44:08.986Z,101696.28
2018-12-27T02:46:56.826Z,101689.61
2018-12-27T02:49:25.471Z,101686.94
2018-12-27T02:51:54.093Z,101689.52
2018-12-27T02:54:22.711Z,101684.13
2018-12-27T02:56:51.368Z,101684.00
2018-12-27T02:59:19.983Z,101681.37
2018-12-27T03:01:48.651Z,101668.94
2018-12-27T03:04:36.450Z,101667.23
2018-12-27T03:07:05.125Z,101661.05
2018-12-27T03:09:33.743Z,101654.20
2018-12-27T03:12:02.360Z,101651.92
2018-12-27T03:14:31.009Z,101650.64
2018-12-27T03:16:59.623Z,101651.41
2018-12-27T03:19:28.274Z,101647.66
2018-12-27T03:21:56.895Z,101644.11
2018-12-27T03:24:25.557Z,101637.84
2018-12-27T03:27:13.441Z,101635.09
2018-12-27T03:29:42.158Z,101630.70
2018-12-27T03:32:10.767Z,101625.31
2018-12-27T03:34:39.376Z,101626.92
2018-12-27T03:37:08.057Z,101626.92
2018-12-27T03:39:36.678Z,101617.79
2018-12-27T03:42:05.328Z,101613.05
2018-12-27T03:44:33.966Z,101608.58
2018-12-27T03:47:02.626Z,101600.52
2018-12-27T03:49:31.238Z,101599.16
2018-12-27T03:54:34.407Z,101604.19
2018-12-27T03:59:37.863Z,101600.41
2018-12-27T04:02:06.506Z,101595.87
2018-12-27T04:20:18.051Z,101596.25
2018-12-27T04:23:05.808Z,101596.83
2018-12-27T04:25:54.112Z,101592.70
2018-12-27T04:31:36.807Z,101590.14
2018-12-27T04:34:45.297Z,101592.28
2018-12-27T04:37:33.106Z,101592.75
2018-12-27T04:40:21.065Z,101594.31
2018-12-27T04:42:49.687Z,101598.44
2018-12-27T04:45:37.441Z,101600.41
2018-12-27T04:48:05.936Z,101607.23
2018-12-27T04:50:53.796Z,101604.84
2018-12-27T04:53:41.614Z,101607.94
2018-12-27T04:59:04.020Z,101602.34
2018-12-27T05:01:51.865Z,101599.48
2018-12-27T05:04:20.448Z,101599.76
2018-12-27T05:10:01.389Z,101593.67
2018-12-27T05:12:49.080Z,101603.41
2018-12-27T05:15:36.937Z,101600.76
2018-12-27T05:18:05.463Z,101598.68
2018-12-27T05:20:53.196Z,101598.03
2018-12-27T05:23:21.739Z,101597.44
2018-12-27T05:25:50.233Z,101589.09
2018-12-27T05:28:18.810Z,101586.91
2018-12-27T05:31:06.678Z,101589.78
2018-12-27T05:33:35.164Z,101594.36
2018-12-27T05:36:23.043Z,101595.94
2018-12-27T05:38:51.535Z,101596.72
2018-12-27T05:41:20.062Z,101590.86
2018-12-27T05:44:07.808Z,101594.30
2018-12-27T05:46:36.312Z,101590.33
2018-12-27T05:49:04.805Z,101598.91
2018-12-27T05:54:46.815Z,101600.06
2018-12-27T05:57:16.559Z,101597.39
2018-12-27T05:59:45.037Z,101597.22
2018-12-27T06:05:26.028Z,101593.75
2018-12-27T06:08:13.877Z,101593.52
2018-12-27T06:10:42.368Z,101594.11
2018-12-27T06:13:30.292Z,101593.95
2018-12-27T06:16:18.045Z,101584.34
2018-12-27T06:18:46.636Z,101581.69
2018-12-27T06:21:15.132Z,101586.33
2018-12-27T06:24:02.900Z,101581.67
2018-12-27T06:29:18.875Z,101575.95
2018-12-27T06:32:06.486Z,101568.06
2018-12-27T06:34:41.391Z,101570.62
2018-12-27T06:37:24.651Z,101566.18
2018-12-27T06:42:27.475Z,101570.82
2018-12-27T06:48:11.501Z,101567.89
2018-12-27T06:50:40.002Z,101572.76
2018-12-27T06:53:08.537Z,101566.34
2018-12-27T06:55:56.213Z,101570.93
2018-12-27T06:58:43.942Z,101570.14
2018-12-27T07:04:38.664Z,101570.56
2018-12-27T07:10:26.584Z,101568.89
2018-12-27T07:12:55.094Z,101560.17
2018-12-27T07:15:23.584Z,101564.03
2018-12-27T07:18:11.301Z,101565.70
2018-12-27T07:20:39.792Z,101569.31
2018-12-27T07:23:08.332Z,101569.79
2018-12-27T07:25:36.832Z,101571.45
2018-12-27T07:30:59.317Z,101574.12
2018-12-27T07:36:20.805Z,101578.55
2018-12-27T07:39:08.576Z,101578.69
2018-12-27T07:41:37.069Z,101587.11
2018-12-27T07:47:18.626Z,101583.03
2018-12-27T07:52:41.149Z,101575.78
2018-12-27T07:55:29.027Z,101570.56
2018-12-27T07:58:16.833Z,101575.48
2018-12-27T08:01:04.698Z,101571.07
2018-12-27T08:03:33.193Z,101581.83
2018-12-27T08:06:20.995Z,101582.53
2018-12-27T08:08:49.497Z,101586.89
2018-12-27T08:14:30.317Z,101592.73
2018-12-27T08:16:58.851Z,101594.73
2018-12-27T08:19:46.767Z,101594.95
2018-12-27T08:22:34.465Z,101588.11
2018-12-27T08:25:03.032Z,101594.27
2018-12-27T08:27:31.525Z,101594.31
2018-12-27T08:30:19.457Z,101595.09
2018-12-27T08:32:47.952Z,101591.15
2018-12-27T08:35:16.476Z,101593.48
2018-12-27T08:40:53.600Z,101600.36
2018-12-27T08:46:37.068Z,101600.58
2018-12-27T08:49:05.569Z,101602.17
2018-12-27T08:51:34.200Z,101607.51
2018-12-27T08:54:22.035Z,101610.89
2018-12-27T08:57:09.819Z,101601.81
2018-12-27T08:59:38.311Z,101605.58
2018-12-27T09:02:06.838Z,101602.13
2018-12-27T09:04:54.654Z,101592.80
2018-12-27T09:07:23.192Z,101595.19
2018-12-27T09:10:11.001Z,101601.58
2018-12-27T09:12:58.864Z,101600.05
2018-12-27T09:15:27.360Z,101600.16
2018-12-27T09:17:55.873Z,101599.91
2018-12-27T09:20:43.751Z,101595.89
2018-12-27T09:26:24.600Z,101587.90
2018-12-27T09:29:12.531Z,101586.73
2018-12-27T09:31:41.024Z,101588.88
2018-12-27T09:34:28.815Z,101583.60
2018-12-27T09:37:16.523Z,101583.33
2018-12-27T09:39:45.057Z,101582.92
2018-12-27T09:42:32.887Z,101581.09
2018-12-27T09:45:01.444Z,101584.53
2018-12-27T09:47:49.204Z,101574.70
2018-12-27T09:50:37.045Z,101574.28
2018-12-27T09:53:24.726Z,101577.75
2018-12-27T09:59:06.041Z,101583.09
2018-12-27T10:01:53.806Z,101582.94
2018-12-27T10:04:22.296Z,101572.73
2018-12-27T10:09:43.610Z,101567.86
2018-12-27T10:12:12.135Z,101565.17
2018-12-27T10:14:40.629Z,101560.81
2018-12-27T10:17:28.268Z,101556.81
2018-12-27T10:19:56.760Z,101554.12
2018-12-27T10:22:44.645Z,101559.77
2018-12-27T10:25:13.141Z,101553.39
2018-12-27T10:28:01.052Z,101552.63
2018-12-27T10:30:48.752Z,101550.36
2018-12-27T10:33:36.544Z,101550.65
2018-12-27T10:36:24.167Z,101541.02
2018-12-27T10:39:32.605Z,101545.30
2018-12-27T10:42:01.108Z,101541.20
2018-12-27T10:47:41.674Z,101545.61
2018-12-27T10:50:50.137Z,101545.73
2018-12-27T10:53:18.627Z,101546.63
2018-12-27T10:56:06.500Z,101539.72
2018-12-27T10:58:54.245Z,101537.53
2018-12-27T11:01:41.895Z,101534.67
2018-12-27T11:04:10.388Z,101534.20
2018-12-27T11:06:58.098Z,101525.25
2018-12-27T11:09:45.705Z,101521.09
2018-12-27T11:12:14.253Z,101516.09
2018-12-27T11:14:42.751Z,101506.81
2018-12-27T11:17:11.250Z,101506.67
2018-12-27T11:19:59.155Z,101497.78
2018-12-27T11:22:27.646Z,101489.02
2018-12-27T11:27:54.879Z,101473.24
2018-12-27T11:30:42.594Z,101476.53
2018-12-27T11:33:11.078Z,101470.79
2018-12-27T11:35:39.561Z,101470.03
2018-12-27T11:38:08.158Z,101471.23
2018-12-27T11:43:45.177Z,101461.55
2018-12-27T11:46:32.984Z,101461.08
2018-12-27T11:51:54.972Z,101456.12
2018-12-27T11:54:42.840Z,101454.28
2018-12-27T11:57:11.336Z,101451.58
2018-12-27T11:59:39.851Z,101446.91
2018-12-27T12:02:31.050Z,101438.11
2018-12-27T12:04:57.833Z,101433.28
2018-12-27T12:07:45.760Z,101435.22
2018-12-27T12:10:14.247Z,101423.68
2018-12-27T12:12:42.747Z,101424.23
2018-12-27T12:15:30.605Z,101421.66
2018-12-27T12:17:59.108Z,101422.50
2018-12-27T12:20:46.870Z,101416.68
2018-12-27T12:23:15.359Z,101417.02
2018-12-27T12:26:03.099Z,101414.06
2018-12-27T12:31:38.363Z,101412.97
2018-12-27T12:34:26.053Z,101411.95
2018-12-27T12:37:34.492Z,101404.30
2018-12-27T12:40:22.227Z,101402.45
2018-12-27T12:43:09.991Z,101399.97
2018-12-27T12:45:57.795Z,101398.64
2018-12-27T12:51:20.218Z,101393.77
2018-12-27T12:53:49.257Z,101399.53
2018-12-27T12:56:18.047Z,101399.70
2018-12-27T12:58:47.500Z,101395.55
2018-12-27T13:01:16.201Z,101393.28
2018-12-27T13:03:45.118Z,101388.69
2018-12-27T13:06:17.918Z,101395.69
2018-12-27T13:08:44.402Z,101395.73
2018-12-27T13:11:13.349Z,101395.70
2018-12-27T13:13:42.134Z,101399.48
2018-12-27T13:16:11.136Z,101394.01
2018-12-27T13:18:47.095Z,101391.30
2018-12-27T13:21:10.289Z,101382.38
2018-12-27T13:23:40.055Z,101386.00
2018-12-27T13:26:08.689Z,101382.84
2018-12-27T13:28:37.287Z,101381.53
2018-12-27T13:31:05.768Z,101380.42
2018-12-27T13:33:34.673Z,101376.42
2018-12-27T13:36:03.635Z,101372.64
2018-12-27T13:38:32.433Z,101370.95
2018-12-27T13:41:00.922Z,101370.41
2018-12-27T13:43:29.920Z,101374.34
2018-12-27T13:45:58.921Z,101371.69
2018-12-27T13:48:27.789Z,101360.28
2018-12-27T13:50:56.951Z,101360.44
2018-12-27T13:53:25.771Z,101362.81
2018-12-27T13:55:54.395Z,101357.45
2018-12-27T13:58:23.216Z,101360.05
2018-12-27T14:00:52.082Z,101352.09
2018-12-27T14:03:20.574Z,101355.13
2018-12-27T14:05:49.423Z,101346.45
2018-12-27T14:08:18.899Z,101350.17
2018-12-27T14:10:47.916Z,101346.09
2018-12-27T14:13:16.864Z,101343.81
2018-12-27T14:15:45.805Z,101342.89
2018-12-27T14:18:14.457Z,101344.56
2018-12-27T14:20:44.486Z,101352.52
2018-12-27T14:23:13.284Z,101356.73
2018-12-27T14:25:41.777Z,101366.30
2018-12-27T14:28:10.611Z,101364.45
2018-12-27T14:30:39.313Z,101370.73
2018-12-27T14:33:08.116Z,101370.13
2018-12-27T14:35:36.642Z,101369.55
2018-12-27T14:38:05.201Z,101367.75
2018-12-27T14:40:33.725Z,101370.80
2018-12-27T14:43:02.394Z,101361.27
2018-12-27T14:45:31.375Z,101359.22
2018-12-27T14:48:00.188Z,101356.36
2018-12-27T14:50:29.131Z,101361.70
2018-12-27T14:52:57.687Z,101358.19
2018-12-27T14:55:26.708Z,101355.00
2018-12-27T14:57:55.505Z,101354.69
2018-12-27T15:00:24.140Z,101349.02
2018-12-27T15:02:53.032Z,101350.05
2018-12-27T15:05:21.664Z,101358.17
2018-12-27T15:07:50.511Z,101355.50
2018-12-27T15:10:19.064Z,101353.78
2018-12-27T15:12:48.031Z,101360.91
2018-12-27T15:15:16.649Z,101357.17
2018-12-27T15:17:45.209Z,101356.41
2018-12-27T15:20:14.109Z,101352.11
2018-12-27T15:22:42.951Z,101355.36
2018-12-27T15:25:12.150Z,101353.31
2018-12-27T15:27:40.969Z,101359.11
2018-12-27T15:30:09.836Z,101351.46
2018-12-27T15:32:38.773Z,101347.73
2018-12-27T15:35:07.629Z,101350.31
2018-12-27T15:37:36.700Z,101348.95
2018-12-27T15:40:06.045Z,101356.50
2018-12-27T15:42:35.018Z,101346.83
2018-12-27T15:45:04.105Z,101353.89
2018-12-27T15:47:32.595Z,101356.33
2018-12-27T15:50:01.219Z,101349.59
2018-12-27T15:52:29.776Z,101345.51
2018-12-27T15:54:58.598Z,101348.86
2018-12-27T15:57:27.641Z,101346.36
2018-12-27T15:59:56.513Z,101349.33
2018-12-27T16:02:25.427Z,101352.86
2018-12-27T16:04:53.989Z,101348.94
2018-12-27T16:07:22.804Z,101353.17
2018-12-27T16:09:51.715Z,101348.91
2018-12-27T16:12:20.258Z,101353.59
2018-12-27T16:14:48.905Z,101354.73
2018-12-27T16:17:17.382Z,101350.41
2018-12-27T16:19:46.371Z,101343.16
2018-12-27T16:22:14.943Z,101351.02
2018-12-27T16:24:43.641Z,101352.91
2018-12-27T16:27:12.542Z,101347.00
2018-12-27T16:29:41.105Z,101349.33
2018-12-27T16:32:09.951Z,101348.36
2018-12-27T16:34:38.750Z,101345.61
2018-12-27T16:37:09.180Z,101339.06
2018-12-27T16:39:38.349Z,101337.97
2018-12-27T16:42:06.916Z,101341.17
2018-12-27T16:44:35.852Z,101344.77
2018-12-27T16:47:04.500Z,101344.44
2018-12-27T16:49:33.572Z,101354.71
2018-12-27T16:52:02.506Z,101362.17
2018-12-27T16:54:31.453Z,101359.68
2018-12-27T16:57:00.054Z,101368.44
2018-12-27T16:59:28.686Z,101364.80
2018-12-27T17:01:57.711Z,101366.43
2018-12-27T17:04:26.589Z,101364.74
2018-12-27T17:06:55.470Z,101363.16
2018-12-27T17:09:24.065Z,101361.36
2018-12-27T17:11:52.937Z,101362.69
2018-12-27T17:14:21.893Z,101363.95
2018-12-27T17:16:50.743Z,101359.27
2018-12-27T17:19:19.303Z,101369.27
2018-12-27T17:21:48.299Z,101368.58
2018-12-27T17:24:17.107Z,101368.64
2018-12-27T17:26:45.981Z,101369.20
2018-12-27T17:29:14.548Z,101371.42
2018-12-27T17:31:43.552Z,101374.80
2018-12-27T17:34:12.399Z,101377.18
2018-12-27T17:36:41.243Z,101373.44
2018-12-27T17:39:10.253Z,101380.52
2018-12-27T17:41:39.206Z,101379.98
2018-12-27T17:44:07.696Z,101374.92
2018-12-27T17:46:36.693Z,101373.91
2018-12-27T17:49:05.567Z,101380.15
2018-12-27T17:51:34.406Z,101390.51
2018-12-27T17:54:02.909Z,101388.60
2018-12-27T17:56:31.948Z,101390.58
2018-12-27T17:59:00.787Z,101381.98
2018-12-27T18:01:29.592Z,101380.86
2018-12-27T18:03:58.805Z,101375.34
2018-12-27T18:06:27.394Z,101369.31
2018-12-27T18:08:55.923Z,101366.55
2018-12-27T18:11:24.514Z,101380.59
2018-12-27T18:13:53.309Z,101376.72
2018-12-27T18:16:22.127Z,101375.30
2018-12-27T18:18:51.070Z,101367.26
2018-12-27T18:21:19.640Z,101375.42
2018-12-27T18:23:48.477Z,101378.50
2018-12-27T18:26:17.281Z,101386.42
2018-12-27T18:28:46.406Z,101394.82
2018-12-27T18:31:14.909Z,101389.58
2018-12-27T18:33:43.473Z,101388.92
2018-12-27T18:36:12.142Z,101391.31
2018-12-27T18:38:40.947Z,101394.73
2018-12-27T18:41:09.611Z,101386.89
2018-12-27T18:43:38.101Z,101381.61
2018-12-27T18:46:06.659Z,101390.27
2018-12-27T18:48:35.572Z,101385.95
2018-12-27T18:51:04.146Z,101389.23
2018-12-27T18:53:33.051Z,101393.63
2018-12-27T18:56:01.865Z,101396.24
2018-12-27T18:58:30.753Z,101387.81
2018-12-27T19:00:59.346Z,101387.31
2018-12-27T19:03:27.835Z,101393.13
2018-12-27T19:05:56.800Z,101393.86
2018-12-27T19:08:25.359Z,101395.20
2018-12-27T19:11:30.076Z,101395.09
2018-12-27T19:13:58.874Z,101383.30
2018-12-27T19:16:27.674Z,101392.09
2018-12-27T19:18:56.274Z,101398.02
2018-12-27T19:21:24.777Z,101402.13
2018-12-27T19:23:53.639Z,101393.52
2018-12-27T19:26:22.492Z,101394.90
2018-12-27T19:28:51.377Z,101393.52
2018-12-27T19:31:20.343Z,101386.69
2018-12-27T19:33:49.250Z,101381.02
2018-12-27T19:36:17.814Z,101384.91
2018-12-27T19:38:46.342Z,101379.92
2018-12-27T19:41:15.145Z,101378.23
2018-12-27T19:43:44.048Z,101376.43
2018-12-27T19:46:12.682Z,101384.12
2018-12-27T19:48:41.298Z,101392.23
2018-12-27T19:51:09.962Z,101395.37
2018-12-27T19:53:38.931Z,101396.17
2018-12-27T19:56:07.795Z,101394.98
2018-12-27T19:58:36.686Z,101395.77
2018-12-27T20:01:05.697Z,101388.95
2018-12-27T20:03:34.314Z,101391.34
2018-12-27T20:06:02.920Z,101395.43
2018-12-27T20:08:31.518Z,101396.77
2018-12-27T20:11:00.297Z,101403.29
2018-12-27T20:13:29.353Z,101403.21
2018-12-27T20:15:57.986Z,101405.78
2018-12-27T20:18:26.757Z,101408.44
2018-12-27T20:20:55.797Z,101412.56
2018-12-27T20:23:24.920Z,101409.41
2018-12-27T20:25:53.720Z,101416.77
2018-12-27T20:28:22.589Z,101422.03
2018-12-27T20:30:51.703Z,101421.88
2018-12-27T20:33:20.807Z,101421.53
2018-12-27T20:35:49.568Z,101418.03
2018-12-27T20:38:18.323Z,101418.41
2018-12-27T20:40:47.107Z,101427.14
2018-12-27T20:43:15.848Z,101420.56
2018-12-27T20:45:44.721Z,101422.80
2018-12-27T20:48:13.835Z,101419.95
2018-12-27T20:50:42.938Z,101411.72
2018-12-27T20:53:11.709Z,101410.83
2018-12-27T20:55:40.773Z,101414.80
2018-12-27T20:58:09.578Z,101404.79
2018-12-27T21:00:38.312Z,101403.59
2018-12-27T21:03:07.382Z,101409.98
2018-12-27T21:05:36.463Z,101402.43
2018-12-27T21:08:05.647Z,101395.91
2018-12-27T21:10:34.737Z,101384.62
2018-12-27T21:13:03.752Z,101384.52
2018-12-27T21:15:32.700Z,101390.84
2018-12-27T21:18:01.765Z,101398.47
2018-12-27T21:20:30.619Z,101403.13
2018-12-27T21:22:59.626Z,101411.41
2018-12-27T21:25:28.578Z,101405.83
2018-12-27T21:27:57.594Z,101407.33
2018-12-27T21:30:26.819Z,101397.55
2018-12-27T21:32:55.921Z,101400.09
2018-12-27T21:35:24.999Z,101386.28
2018-12-27T21:37:53.900Z,101387.03
2018-12-27T21:40:22.633Z,101394.55
2018-12-27T21:42:51.620Z,101402.66
2018-12-27T21:45:20.352Z,101400.44
2018-12-27T21:47:48.955Z,101381.53
2018-12-27T21:50:17.826Z,101384.69
2018-12-27T21:52:46.393Z,101382.73
2018-12-27T21:55:14.912Z,101367.06
2018-12-27T21:57:43.716Z,101363.59
2018-12-27T22:00:12.829Z,101361.66
2018-12-27T22:02:41.334Z,101344.74
2018-12-27T22:05:10.234Z,101358.25
2018-12-27T22:07:38.840Z,101361.14
2018-12-27T22:10:08.291Z,101365.41
2018-12-27T22:12:37.059Z,101356.48
2018-12-27T22:15:05.868Z,101357.91
2018-12-27T22:17:34.894Z,101363.61
2018-12-27T22:20:03.491Z,101357.52
2018-12-27T22:22:32.561Z,101361.91
2018-12-27T22:25:01.634Z,101365.45
2018-12-27T22:27:30.333Z,101375.15
2018-12-27T22:29:58.816Z,101369.53
2018-12-27T22:32:27.652Z,101364.84
2018-12-27T22:34:56.181Z,101364.95
2018-12-27T22:37:24.776Z,101366.80
2018-12-27T22:39:53.362Z,101371.88
2018-12-27T22:42:21.974Z,101376.50
2018-12-27T22:44:50.500Z,101374.73
2018-12-27T22:47:19.297Z,101367.41
2018-12-27T22:49:48.013Z,101365.99
2018-12-27T22:52:16.902Z,101362.95
2018-12-27T22:54:45.859Z,101361.52
2018-12-27T22:57:14.768Z,101358.56
2018-12-27T22:59:43.783Z,101365.45
2018-12-27T23:02:12.773Z,101357.59
2018-12-27T23:04:41.662Z,101367.14
2018-12-27T23:07:10.607Z,101364.60
2018-12-27T23:09:39.488Z,101365.18
2018-12-27T23:12:08.118Z,101365.11
2018-12-27T23:14:37.092Z,101363.53
2018-12-27T23:17:06.191Z,101358.48
2018-12-27T23:19:35.199Z,101360.30
2018-12-27T23:22:03.757Z,101356.18
2018-12-27T23:24:32.574Z,101359.72
2018-12-27T23:27:01.092Z,101363.38
2018-12-27T23:29:29.657Z,101362.75
2018-12-27T23:31:58.187Z,101365.14
2018-12-27T23:34:26.993Z,101365.26
2018-12-27T23:36:55.771Z,101362.76
2018-12-27T23:39:24.680Z,101366.27
2018-12-27T23:41:53.487Z,101367.91
2018-12-27T23:44:22.413Z,101373.95
2018-12-27T23:46:51.055Z,101368.41
2018-12-27T23:49:19.613Z,101367.83
2018-12-27T23:51:48.528Z,101373.48
2018-12-27T23:54:17.097Z,101368.06
2018-12-27T23:56:45.687Z,101369.60
2018-12-27T23:59:14.604Z,101367.64
